createdAt,value
2023-02-17T00:01:44.727Z,5.97
2023-02-17T00:04:13.796Z,6.04
2023-02-17T00:06:44.008Z,6.06
2023-02-17T00:09:13.197Z,5.99
2023-02-17T00:11:42.074Z,6.03
2023-02-17T00:14:13.477Z,6.08
2023-02-17T00:16:42.402Z,6.05
2023-02-17T00:19:26.094Z,6.09
2023-02-17T00:21:58.507Z,6.13
2023-02-17T00:24:31.145Z,6.09
2023-02-17T00:27:00.232Z,6.07
2023-02-17T00:29:29.409Z,6.13
2023-02-17T00:31:58.408Z,6.14
2023-02-17T00:34:28.541Z,6.17
2023-02-17T00:36:58.891Z,6.21
2023-02-17T00:39:28.795Z,6.20
2023-02-17T00:41:57.789Z,6.19
2023-02-17T00:44:27.193Z,6.19
2023-02-17T00:46:56.069Z,6.20
2023-02-17T00:49:27.981Z,6.22
2023-02-17T00:52:00.860Z,6.22
2023-02-17T00:54:30.101Z,6.17
2023-02-17T00:56:58.962Z,6.20
2023-02-17T00:59:28.185Z,6.19
2023-02-17T01:01:57.030Z,6.23
2023-02-17T01:04:26.261Z,6.26
2023-02-17T01:06:55.232Z,6.27
2023-02-17T01:09:27.148Z,6.29
2023-02-17T01:11:55.992Z,6.31
2023-02-17T01:14:26.990Z,6.34
2023-02-17T01:16:58.091Z,6.35
2023-02-17T01:19:27.193Z,6.32
2023-02-17T01:21:56.050Z,6.30
2023-02-17T01:24:26.526Z,6.27
2023-02-17T01:26:55.422Z,6.28
2023-02-17T01:29:24.619Z,6.27
2023-02-17T01:31:53.533Z,6.27
2023-02-17T01:34:22.692Z,6.26
2023-02-17T01:36:51.472Z,6.26
2023-02-17T01:39:20.582Z,6.27
2023-02-17T01:41:51.453Z,6.28
2023-02-17T01:44:25.682Z,6.29
2023-02-17T01:46:56.753Z,6.27
2023-02-17T01:49:34.249Z,6.26
2023-02-17T01:52:12.337Z,6.22
2023-02-17T01:54:48.402Z,6.24
2023-02-17T01:57:23.032Z,6.22
2023-02-17T01:59:53.675Z,6.23
2023-02-17T02:02:23.337Z,6.24
2023-02-17T02:04:55.125Z,6.25
2023-02-17T02:07:29.974Z,6.31
2023-02-17T02:10:01.103Z,6.28
2023-02-17T02:12:35.053Z,6.30
2023-02-17T02:15:10.461Z,6.28
2023-02-17T02:18:03.052Z,6.26
2023-02-17T02:21:37.447Z,6.24
2023-02-17T02:24:22.898Z,6.26
2023-02-17T02:27:43.155Z,6.35
2023-02-17T02:30:52.706Z,6.35
2023-02-17T02:33:35.446Z,6.36
2023-02-17T02:36:13.886Z,6.38
2023-02-17T02:38:51.226Z,6.42
2023-02-17T02:41:26.324Z,6.40
2023-02-17T02:43:55.976Z,6.40
2023-02-17T02:46:26.003Z,6.44
2023-02-17T02:48:56.653Z,6.47
2023-02-17T02:51:40.417Z,6.50
2023-02-17T02:54:28.123Z,6.58
2023-02-17T02:57:30.557Z,6.57
2023-02-17T03:00:20.556Z,6.58
2023-02-17T03:02:56.998Z,6.61
2023-02-17T03:05:39.785Z,6.65
2023-02-17T03:08:16.059Z,6.63
2023-02-17T03:10:50.630Z,6.57
2023-02-17T03:13:21.512Z,6.55
2023-02-17T03:15:51.396Z,6.47
2023-02-17T03:18:21.169Z,6.47
2023-02-17T03:20:57.510Z,6.43
2023-02-17T03:23:27.448Z,6.45
2023-02-17T03:25:56.546Z,6.43
2023-02-17T03:28:25.470Z,6.43
2023-02-17T03:30:54.991Z,6.47
2023-02-17T03:33:23.828Z,6.52
2023-02-17T03:35:56.000Z,6.58
2023-02-17T03:38:25.346Z,6.62
2023-02-17T03:40:54.548Z,6.72
2023-02-17T03:43:23.357Z,6.64
2023-02-17T03:45:52.478Z,6.67
2023-02-17T03:48:21.447Z,6.65
2023-02-17T03:50:50.563Z,6.57
2023-02-17T03:53:20.755Z,6.51
2023-02-17T03:55:49.822Z,6.41
2023-02-17T03:58:18.644Z,6.28
2023-02-17T04:00:47.691Z,6.24
2023-02-17T04:03:16.477Z,6.24
2023-02-17T04:05:46.378Z,6.26
2023-02-17T04:08:15.192Z,6.22
2023-02-17T04:10:45.815Z,6.23
2023-02-17T04:13:14.685Z,6.20
2023-02-17T04:15:43.751Z,6.20
2023-02-17T04:18:12.631Z,6.18
2023-02-17T04:20:41.963Z,6.22
2023-02-17T04:23:10.842Z,6.24
2023-02-17T04:25:40.011Z,6.25
2023-02-17T04:28:13.103Z,6.25
2023-02-17T04:30:45.469Z,6.26
2023-02-17T04:33:14.326Z,6.20
2023-02-17T04:35:43.960Z,6.22
2023-02-17T04:38:13.102Z,6.18
2023-02-17T04:40:43.204Z,6.13
2023-02-17T04:43:13.517Z,6.10
2023-02-17T04:45:42.765Z,6.08
2023-02-17T04:48:11.567Z,6.12
2023-02-17T04:50:40.643Z,6.14
2023-02-17T04:53:09.414Z,6.09
2023-02-17T04:55:38.547Z,6.11
2023-02-17T04:58:07.394Z,6.15
2023-02-17T05:00:38.366Z,6.14
2023-02-17T05:03:07.283Z,6.07
2023-02-17T05:05:36.451Z,6.03
2023-02-17T05:08:05.977Z,6.03
2023-02-17T05:10:35.133Z,6.01
2023-02-17T05:13:03.937Z,6.01
2023-02-17T05:15:34.870Z,5.97
2023-02-17T05:18:05.772Z,6.03
2023-02-17T05:20:34.838Z,6.02
2023-02-17T05:23:03.661Z,6.06
2023-02-17T05:25:33.067Z,6.06
2023-02-17T05:28:01.912Z,6.03
2023-02-17T05:30:31.091Z,6.06
2023-02-17T05:33:00.855Z,6.08
2023-02-17T05:35:32.102Z,6.05
2023-02-17T05:38:02.095Z,6.06
2023-02-17T05:40:31.223Z,6.09
2023-02-17T05:43:00.029Z,6.13
2023-02-17T05:45:29.129Z,6.14
2023-02-17T05:47:57.949Z,6.10
2023-02-17T05:50:27.080Z,6.12
2023-02-17T05:53:05.797Z,6.14
2023-02-17T05:55:34.974Z,6.15
2023-02-17T05:58:03.913Z,6.13
2023-02-17T06:00:32.989Z,6.11
2023-02-17T06:03:01.831Z,6.12
2023-02-17T06:05:31.001Z,6.17
2023-02-17T06:08:00.216Z,6.15
2023-02-17T06:10:30.676Z,6.16
2023-02-17T06:12:59.790Z,6.20
2023-02-17T06:15:29.900Z,6.21
2023-02-17T06:17:58.760Z,6.22
2023-02-17T06:20:27.834Z,6.23
2023-02-17T06:22:56.642Z,6.24
2023-02-17T06:25:25.858Z,6.23
2023-02-17T06:27:56.337Z,6.22
2023-02-17T06:30:25.541Z,6.19
2023-02-17T06:32:54.316Z,6.22
2023-02-17T06:35:23.421Z,6.26
2023-02-17T06:37:52.600Z,6.30
2023-02-17T06:40:22.036Z,6.28
2023-02-17T06:42:50.913Z,6.36
2023-02-17T06:45:21.767Z,6.37
2023-02-17T06:47:50.534Z,6.35
2023-02-17T06:50:19.727Z,6.35
2023-02-17T06:52:48.512Z,6.38
2023-02-17T06:55:17.749Z,6.39
2023-02-17T06:57:46.646Z,6.38
2023-02-17T07:00:16.472Z,6.42
2023-02-17T07:02:46.737Z,6.47
2023-02-17T07:05:15.929Z,6.49
2023-02-17T07:07:44.740Z,6.55
2023-02-17T07:10:14.421Z,6.59
2023-02-17T07:12:43.255Z,6.61
2023-02-17T07:15:12.662Z,6.66
2023-02-17T07:17:41.623Z,6.73
2023-02-17T07:20:13.678Z,6.77
2023-02-17T07:22:42.548Z,6.83
2023-02-17T07:25:11.648Z,6.79
2023-02-17T07:27:40.615Z,6.83
2023-02-17T07:30:11.241Z,6.88
2023-02-17T07:32:40.093Z,6.93
2023-02-17T07:35:09.500Z,6.99
2023-02-17T07:37:39.658Z,7.02
2023-02-17T07:40:10.056Z,7.02
2023-02-17T07:42:39.004Z,7.06
2023-02-17T07:45:09.378Z,7.06
2023-02-17T07:47:38.154Z,7.10
2023-02-17T07:50:09.371Z,7.11
2023-02-17T07:52:39.697Z,7.13
2023-02-17T07:55:09.321Z,7.15
2023-02-17T07:57:38.139Z,7.23
2023-02-17T08:00:10.901Z,7.31
2023-02-17T08:02:42.469Z,7.40
2023-02-17T08:05:11.754Z,7.40
2023-02-17T08:07:43.045Z,7.44
2023-02-17T08:10:31.842Z,7.48
2023-02-17T08:13:18.513Z,7.55
2023-02-17T08:15:47.594Z,7.55
2023-02-17T08:18:16.528Z,7.57
2023-02-17T08:20:45.851Z,7.55
2023-02-17T08:23:16.159Z,7.55
2023-02-17T08:25:45.301Z,7.59
2023-02-17T08:28:14.822Z,7.63
2023-02-17T08:30:44.010Z,7.66
2023-02-17T08:33:17.936Z,7.67
2023-02-17T08:35:47.081Z,7.68
2023-02-17T08:38:17.516Z,7.72
2023-02-17T08:40:46.730Z,7.80
2023-02-17T08:43:16.077Z,7.86
2023-02-17T08:45:45.513Z,7.92
2023-02-17T08:48:14.348Z,7.94
2023-02-17T08:50:43.461Z,7.99
2023-02-17T08:53:12.396Z,7.98
2023-02-17T08:55:49.191Z,7.91
2023-02-17T08:58:18.736Z,7.80
2023-02-17T09:00:47.938Z,7.71
2023-02-17T09:03:16.847Z,7.59
2023-02-17T09:05:46.219Z,7.53
2023-02-17T09:08:15.138Z,7.49
2023-02-17T09:10:45.696Z,7.43
2023-02-17T09:13:14.724Z,7.39
2023-02-17T09:15:43.953Z,7.38
2023-02-17T09:18:13.137Z,7.37
2023-02-17T09:20:42.714Z,7.46
2023-02-17T09:23:11.511Z,7.42
2023-02-17T09:25:40.604Z,7.47
2023-02-17T09:28:11.530Z,7.46
2023-02-17T09:30:40.829Z,7.45
2023-02-17T09:33:09.812Z,7.43
2023-02-17T09:35:39.888Z,7.52
2023-02-17T09:38:10.347Z,7.61
2023-02-17T09:40:47.396Z,7.65
2023-02-17T09:43:23.648Z,7.64
2023-02-17T09:46:01.631Z,7.69
2023-02-17T09:48:35.092Z,7.66
2023-02-17T09:51:12.718Z,7.66
2023-02-17T09:53:53.240Z,7.73
2023-02-17T09:56:33.566Z,7.78
2023-02-17T09:59:13.113Z,7.81
2023-02-17T10:01:45.462Z,7.92
2023-02-17T10:04:20.861Z,7.93
2023-02-17T10:06:55.775Z,7.93
2023-02-17T10:09:33.208Z,7.89
2023-02-17T10:12:06.811Z,7.89
2023-02-17T10:14:44.515Z,7.89
2023-02-17T10:17:26.003Z,7.81
2023-02-17T10:20:04.101Z,7.65
2023-02-17T10:22:34.841Z,7.64
2023-02-17T10:25:16.143Z,7.66
2023-02-17T10:27:55.524Z,7.64
2023-02-17T10:30:40.915Z,7.71
2023-02-17T10:33:23.032Z,7.75
2023-02-17T10:35:54.803Z,7.75
2023-02-17T10:38:46.585Z,7.77
2023-02-17T10:41:22.341Z,7.72
2023-02-17T10:43:52.790Z,7.65
2023-02-17T10:46:30.428Z,7.72
2023-02-17T10:49:01.477Z,7.73
2023-02-17T10:51:33.094Z,7.83
2023-02-17T10:54:09.328Z,7.89
2023-02-17T10:56:45.714Z,7.93
2023-02-17T10:59:24.349Z,7.90
2023-02-17T11:02:01.648Z,7.97
2023-02-17T11:04:43.522Z,8.02
2023-02-17T11:07:16.050Z,8.02
2023-02-17T11:09:50.311Z,8.07
2023-02-17T11:12:39.966Z,8.15
2023-02-17T11:15:20.230Z,8.22
2023-02-17T11:17:50.724Z,8.24
2023-02-17T11:20:34.936Z,8.28
2023-02-17T11:23:23.508Z,8.19
2023-02-17T11:26:04.611Z,8.22
2023-02-17T11:28:33.590Z,8.28
2023-02-17T11:31:04.985Z,8.32
2023-02-17T11:33:38.557Z,8.31
2023-02-17T11:36:13.708Z,8.42
2023-02-17T11:38:47.863Z,8.49
2023-02-17T11:41:17.929Z,8.51
2023-02-17T11:43:55.770Z,8.54
2023-02-17T11:46:34.924Z,8.55
2023-02-17T11:49:41.442Z,8.58
2023-02-17T11:52:34.196Z,8.59
2023-02-17T11:55:30.450Z,8.61
2023-02-17T11:58:25.829Z,8.55
2023-02-17T12:01:07.789Z,8.52
2023-02-17T12:04:26.963Z,8.55
2023-02-17T12:07:25.334Z,8.55
2023-02-17T12:10:04.785Z,8.56
2023-02-17T12:12:58.897Z,8.60
2023-02-17T12:15:50.136Z,8.68
2023-02-17T12:18:42.766Z,8.73
2023-02-17T12:21:24.700Z,8.54
2023-02-17T12:24:24.275Z,8.61
2023-02-17T12:27:05.092Z,8.69
2023-02-17T12:29:55.809Z,8.72
2023-02-17T12:32:48.471Z,8.74
2023-02-17T12:35:24.777Z,8.75
2023-02-17T12:38:01.892Z,8.71
2023-02-17T12:40:40.155Z,8.77
2023-02-17T12:43:25.977Z,8.83
2023-02-17T12:46:00.351Z,8.74
2023-02-17T12:48:37.848Z,8.79
2023-02-17T12:51:14.360Z,8.84
2023-02-17T12:53:52.637Z,8.86
2023-02-17T12:57:06.607Z,8.89
2023-02-17T12:59:37.916Z,8.90
2023-02-17T13:02:12.703Z,8.88
2023-02-17T13:04:44.760Z,8.89
2023-02-17T13:07:45.932Z,8.91
2023-02-17T13:10:34.162Z,8.88
2023-02-17T13:13:07.582Z,8.88
2023-02-17T13:15:40.558Z,8.84
2023-02-17T13:18:16.026Z,8.92
2023-02-17T13:20:57.614Z,8.97
2023-02-17T13:23:40.419Z,8.94
2023-02-17T13:26:29.888Z,8.95
2023-02-17T13:29:35.736Z,8.83
2023-02-17T13:32:08.169Z,8.83
2023-02-17T13:34:42.426Z,8.79
2023-02-17T13:37:28.244Z,8.75
2023-02-17T13:39:57.245Z,8.72
2023-02-17T13:42:40.259Z,8.65
2023-02-17T13:45:28.662Z,8.65
2023-02-17T13:48:01.145Z,8.59
2023-02-17T13:50:34.743Z,8.64
2023-02-17T13:53:21.499Z,8.59
2023-02-17T13:55:50.735Z,8.55
2023-02-17T13:58:29.742Z,8.64
2023-02-17T14:01:01.532Z,8.67
2023-02-17T14:03:42.228Z,8.73
2023-02-17T14:06:21.785Z,8.66
2023-02-17T14:08:51.000Z,8.76
2023-02-17T14:11:24.323Z,8.79
2023-02-17T14:13:58.506Z,8.87
2023-02-17T14:16:31.652Z,8.88
2023-02-17T14:19:07.698Z,8.91
2023-02-17T14:21:38.317Z,8.90
2023-02-17T14:24:10.882Z,8.84
2023-02-17T14:26:47.667Z,8.91
2023-02-17T14:29:18.178Z,8.85
2023-02-17T14:31:50.583Z,8.78
2023-02-17T14:34:29.129Z,8.84
2023-02-17T14:37:10.667Z,8.88
2023-02-17T14:39:39.765Z,8.90
2023-02-17T14:42:08.583Z,8.94
2023-02-17T14:44:39.913Z,8.89
2023-02-17T14:47:08.819Z,8.82
2023-02-17T14:49:37.893Z,8.86
2023-02-17T14:52:21.644Z,8.93
2023-02-17T14:54:51.400Z,8.90
2023-02-17T14:57:26.264Z,8.91
2023-02-17T14:59:57.884Z,8.88
2023-02-17T15:02:26.778Z,8.80
2023-02-17T15:04:56.011Z,8.64
2023-02-17T15:07:24.981Z,8.55
2023-02-17T15:09:54.222Z,8.47
2023-02-17T15:12:25.530Z,8.49
2023-02-17T15:14:57.050Z,8.43
2023-02-17T15:17:25.987Z,8.45
2023-02-17T15:19:55.127Z,8.37
2023-02-17T15:22:25.527Z,8.40
2023-02-17T15:24:54.818Z,8.34
2023-02-17T15:27:23.855Z,8.38
2023-02-17T15:29:52.939Z,8.33
2023-02-17T15:32:24.081Z,8.34
2023-02-17T15:34:53.242Z,8.31
2023-02-17T15:37:22.077Z,8.33
2023-02-17T15:39:51.219Z,8.26
2023-02-17T15:42:20.927Z,8.26
2023-02-17T15:44:52.648Z,8.31
2023-02-17T15:47:22.880Z,8.30
2023-02-17T15:49:52.130Z,8.31
2023-02-17T15:52:20.994Z,8.33
2023-02-17T15:54:50.088Z,8.31
2023-02-17T15:57:24.085Z,8.28
2023-02-17T15:59:55.355Z,8.19
2023-02-17T16:02:27.275Z,8.19
2023-02-17T16:04:56.396Z,8.23
2023-02-17T16:07:25.209Z,8.24
2023-02-17T16:09:54.346Z,8.23
2023-02-17T16:12:27.213Z,8.25
2023-02-17T16:14:58.335Z,8.24
2023-02-17T16:17:29.031Z,8.20
2023-02-17T16:19:58.157Z,8.17
2023-02-17T16:22:27.002Z,8.20
2023-02-17T16:24:56.217Z,8.18
2023-02-17T16:27:25.214Z,8.25
2023-02-17T16:29:54.744Z,8.15
2023-02-17T16:32:23.597Z,8.22
2023-02-17T16:34:54.151Z,8.23
2023-02-17T16:37:23.071Z,8.23
2023-02-17T16:39:52.726Z,8.10
2023-02-17T16:42:21.580Z,8.17
2023-02-17T16:44:50.639Z,8.22
2023-02-17T16:47:23.938Z,8.14
2023-02-17T16:49:54.437Z,8.16
2023-02-17T16:52:28.036Z,8.20
2023-02-17T16:54:57.117Z,8.16
2023-02-17T16:57:26.467Z,8.16
2023-02-17T16:59:56.036Z,8.20
2023-02-17T17:02:24.860Z,8.16
2023-02-17T17:04:55.380Z,8.17
2023-02-17T17:07:24.190Z,8.16
2023-02-17T17:10:15.174Z,8.20
2023-02-17T17:12:42.685Z,8.13
2023-02-17T17:15:12.833Z,8.17
2023-02-17T17:17:47.296Z,8.23
2023-02-17T17:20:24.025Z,8.24
2023-02-17T17:22:52.891Z,8.20
2023-02-17T17:25:22.016Z,8.20
2023-02-17T17:27:51.068Z,8.20
2023-02-17T17:30:22.889Z,8.23
2023-02-17T17:32:51.911Z,8.27
2023-02-17T17:35:22.615Z,8.19
2023-02-17T17:37:51.628Z,8.22
2023-02-17T17:40:23.864Z,8.28
2023-02-17T17:42:53.435Z,8.32
2023-02-17T17:45:26.580Z,8.25
2023-02-17T17:47:55.613Z,8.30
2023-02-17T17:50:26.505Z,8.29
2023-02-17T17:52:55.374Z,8.34
2023-02-17T17:55:24.532Z,8.29
2023-02-17T17:57:53.745Z,8.32
2023-02-17T18:00:23.289Z,8.33
2023-02-17T18:02:52.103Z,8.30
2023-02-17T18:05:21.617Z,8.32
2023-02-17T18:07:52.919Z,8.30
2023-02-17T18:10:22.262Z,8.36
2023-02-17T18:12:51.227Z,8.32
2023-02-17T18:15:21.116Z,8.36
2023-02-17T18:17:50.700Z,8.34
2023-02-17T18:20:20.687Z,8.39
2023-02-17T18:22:50.847Z,8.34
2023-02-17T18:25:20.138Z,8.39
2023-02-17T18:27:49.250Z,8.40
2023-02-17T18:30:23.502Z,8.46
2023-02-17T18:32:52.949Z,8.49
2023-02-17T18:35:22.956Z,8.45
2023-02-17T18:37:53.702Z,8.52
2023-02-17T18:40:23.672Z,8.48
2023-02-17T18:42:52.622Z,8.53
2023-02-17T18:45:22.425Z,8.59
2023-02-17T18:47:51.292Z,8.61
2023-02-17T18:50:20.964Z,8.61
2023-02-17T18:52:49.805Z,8.65
2023-02-17T18:55:20.780Z,8.64
2023-02-17T18:57:49.564Z,8.68
2023-02-17T19:00:19.519Z,8.58
2023-02-17T19:02:48.416Z,8.52
2023-02-17T19:05:18.291Z,8.68
2023-02-17T19:07:47.099Z,8.70
2023-02-17T19:10:16.889Z,8.73
2023-02-17T19:12:47.241Z,8.76
2023-02-17T19:15:20.758Z,8.74
2023-02-17T19:17:51.080Z,8.79
2023-02-17T19:20:20.349Z,8.84
2023-02-17T19:22:49.228Z,8.89
2023-02-17T19:25:18.550Z,8.90
2023-02-17T19:27:48.731Z,8.94
2023-02-17T19:30:17.899Z,9.01
2023-02-17T19:32:46.748Z,8.98
2023-02-17T19:35:15.891Z,8.98
2023-02-17T19:37:44.733Z,9.04
2023-02-17T19:40:13.922Z,9.09
2023-02-17T19:42:42.738Z,9.20
2023-02-17T19:45:13.265Z,9.16
2023-02-17T19:47:42.064Z,9.18
2023-02-17T19:50:11.448Z,9.22
2023-02-17T19:52:40.245Z,9.22
2023-02-17T19:55:10.096Z,9.23
2023-02-17T19:57:39.066Z,9.35
2023-02-17T20:00:10.251Z,9.36
2023-02-17T20:02:40.505Z,9.44
2023-02-17T20:05:10.263Z,9.48
2023-02-17T20:07:39.158Z,9.54
2023-02-17T20:10:11.147Z,9.61
2023-02-17T20:12:39.993Z,9.60
2023-02-17T20:15:10.140Z,9.74
2023-02-17T20:17:41.153Z,9.73
2023-02-17T20:20:12.262Z,9.79
2023-02-17T20:22:41.442Z,9.88
2023-02-17T20:25:10.773Z,9.87
2023-02-17T20:27:39.560Z,9.93
2023-02-17T20:30:10.403Z,9.93
2023-02-17T20:32:40.807Z,10.02
2023-02-17T20:35:16.587Z,10.05
2023-02-17T20:37:45.448Z,10.07
2023-02-17T20:40:15.129Z,10.08
2023-02-17T20:42:44.034Z,10.15
2023-02-17T20:45:13.128Z,10.11
2023-02-17T20:47:43.408Z,10.17
2023-02-17T20:50:15.713Z,10.23
2023-02-17T20:52:45.298Z,10.22
2023-02-17T20:55:17.083Z,10.19
2023-02-17T20:57:46.094Z,10.17
2023-02-17T21:00:19.310Z,10.18
2023-02-17T21:02:52.265Z,10.20
2023-02-17T21:05:22.233Z,10.24
2023-02-17T21:07:51.446Z,10.22
2023-02-17T21:10:23.798Z,10.29
2023-02-17T21:12:52.668Z,10.31
2023-02-17T21:15:22.174Z,10.35
2023-02-17T21:17:52.593Z,10.38
2023-02-17T21:20:23.284Z,10.41
2023-02-17T21:22:52.593Z,10.38
2023-02-17T21:25:21.816Z,10.44
2023-02-17T21:27:50.640Z,10.35
2023-02-17T21:30:20.235Z,10.32
2023-02-17T21:32:49.249Z,10.30
2023-02-17T21:35:19.730Z,10.25
2023-02-17T21:37:48.577Z,10.21
2023-02-17T21:40:17.876Z,10.20
2023-02-17T21:43:04.354Z,10.15
2023-02-17T21:45:39.455Z,10.10
2023-02-17T21:48:08.781Z,10.03
2023-02-17T21:50:39.660Z,10.01
2023-02-17T21:53:08.500Z,10.06
2023-02-17T21:55:37.658Z,9.98
2023-02-17T21:58:06.462Z,10.01
2023-02-17T22:00:35.592Z,9.98
2023-02-17T22:03:04.440Z,9.97
2023-02-17T22:05:33.958Z,9.89
2023-02-17T22:08:04.331Z,9.91
2023-02-17T22:10:37.962Z,9.95
2023-02-17T22:13:07.326Z,9.93
2023-02-17T22:15:38.089Z,9.90
2023-02-17T22:18:07.430Z,9.92
2023-02-17T22:20:38.034Z,9.87
2023-02-17T22:23:08.203Z,9.87
2023-02-17T22:25:42.127Z,9.93
2023-02-17T22:28:12.875Z,9.88
2023-02-17T22:30:43.165Z,9.89
2023-02-17T22:33:11.974Z,9.89
2023-02-17T22:35:41.032Z,9.91
2023-02-17T22:38:12.140Z,9.89
2023-02-17T22:40:42.035Z,9.92
2023-02-17T22:43:10.902Z,9.96
2023-02-17T22:45:41.077Z,9.96
2023-02-17T22:48:09.934Z,9.95
2023-02-17T22:50:39.819Z,9.92
2023-02-17T22:53:10.220Z,9.89
2023-02-17T22:55:39.306Z,9.90
2023-02-17T22:58:08.110Z,9.83
2023-02-17T23:00:37.277Z,9.72
2023-02-17T23:03:06.083Z,9.67
2023-02-17T23:05:35.228Z,9.66
2023-02-17T23:08:04.060Z,9.57
2023-02-17T23:10:34.497Z,9.63
2023-02-17T23:13:03.303Z,9.54
2023-02-17T23:15:40.354Z,9.50
2023-02-17T23:18:11.701Z,9.46
2023-02-17T23:20:43.787Z,9.55
2023-02-17T23:23:13.766Z,9.57
2023-02-17T23:25:50.069Z,9.49
2023-02-17T23:28:20.269Z,9.53
2023-02-17T23:30:50.482Z,9.60
2023-02-17T23:33:22.823Z,9.55
2023-02-17T23:35:52.153Z,9.57
2023-02-17T23:38:22.980Z,9.40
2023-02-17T23:40:53.986Z,9.40
2023-02-17T23:43:22.831Z,9.37
2023-02-17T23:45:56.101Z,9.28
2023-02-17T23:48:25.312Z,9.30
2023-02-17T23:50:58.965Z,9.35
2023-02-17T23:53:29.136Z,9.38
2023-02-17T23:56:09.511Z,9.22
2023-02-17T23:58:38.700Z,9.28
